sensor_id;sensor_type;location;lat;lon;timestamp;temperature;humidity
16871;DHT22;8552;48.120;-1.456;2022-09-28T00:01:08;14.60;99.90
16871;DHT22;8552;48.120;-1.456;2022-09-28T00:03:35;14.50;99.90
16871;DHT22;8552;48.120;-1.456;2022-09-28T00:06:04;14.50;99.90
16871;DHT22;8552;48.120;-1.456;2022-09-28T00:08:30;14.60;99.90
16871;DHT22;8552;48.120;-1.456;2022-09-28T00:10:57;14.50;99.90
16871;DHT22;8552;48.120;-1.456;2022-09-28T00:13:23;14.60;99.90
16871;DHT22;8552;48.120;-1.456;2022-09-28T00:16:10;14.60;99.90
16871;DHT22;8552;48.120;-1.456;2022-09-28T00:18:35;14.60;99.90
16871;DHT22;8552;48.120;-1.456;2022-09-28T00:23:31;14.60;99.90
16871;DHT22;8552;48.120;-1.456;2022-09-28T00:26:04;14.50;99.90
16871;DHT22;8552;48.120;-1.456;2022-09-28T00:28:30;14.50;99.90
16871;DHT22;8552;48.120;-1.456;2022-09-28T00:30:57;14.50;99.90
16871;DHT22;8552;48.120;-1.456;2022-09-28T00:33:23;14.50;99.90
16871;DHT22;8552;48.120;-1.456;2022-09-28T00:35:58;14.40;99.90
16871;DHT22;8552;48.120;-1.456;2022-09-28T00:38:30;14.50;99.90
16871;DHT22;8552;48.120;-1.456;2022-09-28T00:40:55;14.50;99.90
16871;DHT22;8552;48.120;-1.456;2022-09-28T00:43:22;14.50;99.90
16871;DHT22;8552;48.120;-1.456;2022-09-28T00:46:01;14.50;99.90
16871;DHT22;8552;48.120;-1.456;2022-09-28T00:48:33;14.50;99.90
16871;DHT22;8552;48.120;-1.456;2022-09-28T00:51:04;14.40;99.90
16871;DHT22;8552;48.120;-1.456;2022-09-28T00:53:31;14.40;99.90
16871;DHT22;8552;48.120;-1.456;2022-09-28T00:56:09;14.40;99.90
16871;DHT22;8552;48.120;-1.456;2022-09-28T00:58:43;14.40;99.90
16871;DHT22;8552;48.120;-1.456;2022-09-28T01:01:10;14.40;99.90
16871;DHT22;8552;48.120;-1.456;2022-09-28T01:03:37;14.40;99.90
16871;DHT22;8552;48.120;-1.456;2022-09-28T01:06:06;14.40;99.90
16871;DHT22;8552;48.120;-1.456;2022-09-28T01:08:35;14.40;99.90
16871;DHT22;8552;48.120;-1.456;2022-09-28T01:11:01;14.40;99.90
16871;DHT22;8552;48.120;-1.456;2022-09-28T01:13:27;14.40;99.90
16871;DHT22;8552;48.120;-1.456;2022-09-28T01:21:57;14.40;99.90
16871;DHT22;8552;48.120;-1.456;2022-09-28T01:24:44;14.40;99.90
16871;DHT22;8552;48.120;-1.456;2022-09-28T01:27:32;14.40;99.90
16871;DHT22;8552;48.120;-1.456;2022-09-28T01:30:09;14.40;99.90
16871;DHT22;8552;48.120;-1.456;2022-09-28T01:35:25;14.40;99.90
16871;DHT22;8552;48.120;-1.456;2022-09-28T01:38:16;14.50;99.90
16871;DHT22;8552;48.120;-1.456;2022-09-28T01:40:44;14.40;99.90
16871;DHT22;8552;48.120;-1.456;2022-09-28T01:43:18;14.40;99.90
16871;DHT22;8552;48.120;-1.456;2022-09-28T01:48:49;14.40;99.90
16871;DHT22;8552;48.120;-1.456;2022-09-28T01:54:12;14.40;99.90
16871;DHT22;8552;48.120;-1.456;2022-09-28T01:56:48;14.40;99.90
16871;DHT22;8552;48.120;-1.456;2022-09-28T01:59:17;14.40;99.90
16871;DHT22;8552;48.120;-1.456;2022-09-28T02:01:51;14.40;99.90
16871;DHT22;8552;48.120;-1.456;2022-09-28T02:04:21;14.40;99.90
16871;DHT22;8552;48.120;-1.456;2022-09-28T02:06:53;14.40;99.90
16871;DHT22;8552;48.120;-1.456;2022-09-28T02:09:36;14.40;99.90
16871;DHT22;8552;48.120;-1.456;2022-09-28T02:12:12;14.10;99.90
16871;DHT22;8552;48.120;-1.456;2022-09-28T02:14:40;14.00;99.90
16871;DHT22;8552;48.120;-1.456;2022-09-28T02:17:08;13.80;99.90
16871;DHT22;8552;48.120;-1.456;2022-09-28T02:19:34;13.60;99.90
16871;DHT22;8552;48.120;-1.456;2022-09-28T02:24:41;13.60;99.90
16871;DHT22;8552;48.120;-1.456;2022-09-28T02:27:30;13.50;99.90
16871;DHT22;8552;48.120;-1.456;2022-09-28T02:29:59;13.40;99.90
16871;DHT22;8552;48.120;-1.456;2022-09-28T02:32:27;13.30;99.90
16871;DHT22;8552;48.120;-1.456;2022-09-28T02:34:54;13.20;99.90
16871;DHT22;8552;48.120;-1.456;2022-09-28T02:37:20;13.20;99.90
16871;DHT22;8552;48.120;-1.456;2022-09-28T02:39:46;13.20;99.90
16871;DHT22;8552;48.120;-1.456;2022-09-28T02:45:07;13.10;99.90
16871;DHT22;8552;48.120;-1.456;2022-09-28T02:47:51;13.10;99.90
16871;DHT22;8552;48.120;-1.456;2022-09-28T03:09:42;12.70;99.90
16871;DHT22;8552;48.120;-1.456;2022-09-28T03:12:12;12.80;99.90
16871;DHT22;8552;48.120;-1.456;2022-09-28T03:14:39;12.70;99.90
16871;DHT22;8552;48.120;-1.456;2022-09-28T03:17:05;12.70;99.90
16871;DHT22;8552;48.120;-1.456;2022-09-28T03:19:32;12.60;99.90
16871;DHT22;8552;48.120;-1.456;2022-09-28T03:21:58;12.60;99.90
16871;DHT22;8552;48.120;-1.456;2022-09-28T03:24:24;12.50;99.90
16871;DHT22;8552;48.120;-1.456;2022-09-28T03:26:50;12.50;99.90
16871;DHT22;8552;48.120;-1.456;2022-09-28T03:29:16;12.40;99.90
16871;DHT22;8552;48.120;-1.456;2022-09-28T03:31:42;12.40;99.90
16871;DHT22;8552;48.120;-1.456;2022-09-28T03:34:08;12.40;99.90
16871;DHT22;8552;48.120;-1.456;2022-09-28T03:36:34;12.40;99.90
16871;DHT22;8552;48.120;-1.456;2022-09-28T03:39:00;12.40;99.90
16871;DHT22;8552;48.120;-1.456;2022-09-28T03:41:26;12.40;99.90
16871;DHT22;8552;48.120;-1.456;2022-09-28T03:43:54;12.40;99.90
16871;DHT22;8552;48.120;-1.456;2022-09-28T03:46:20;12.40;99.90
16871;DHT22;8552;48.120;-1.456;2022-09-28T03:48:46;12.40;99.90
16871;DHT22;8552;48.120;-1.456;2022-09-28T03:51:12;12.30;99.90
16871;DHT22;8552;48.120;-1.456;2022-09-28T03:53:38;12.30;99.90
16871;DHT22;8552;48.120;-1.456;2022-09-28T03:56:12;12.20;99.90
16871;DHT22;8552;48.120;-1.456;2022-09-28T03:58:38;12.30;99.90
16871;DHT22;8552;48.120;-1.456;2022-09-28T04:01:09;12.20;99.90
16871;DHT22;8552;48.120;-1.456;2022-09-28T04:03:37;12.20;99.90
16871;DHT22;8552;48.120;-1.456;2022-09-28T04:06:03;12.20;99.90
16871;DHT22;8552;48.120;-1.456;2022-09-28T04:08:28;12.20;99.90
16871;DHT22;8552;48.120;-1.456;2022-09-28T04:10:58;12.20;99.90
16871;DHT22;8552;48.120;-1.456;2022-09-28T04:13:25;12.10;99.90
16871;DHT22;8552;48.120;-1.456;2022-09-28T04:15:52;12.10;99.90
16871;DHT22;8552;48.120;-1.456;2022-09-28T04:18:18;12.10;99.90
16871;DHT22;8552;48.120;-1.456;2022-09-28T04:20:44;12.10;99.90
16871;DHT22;8552;48.120;-1.456;2022-09-28T04:23:15;12.10;99.90
16871;DHT22;8552;48.120;-1.456;2022-09-28T04:25:41;12.10;99.90
16871;DHT22;8552;48.120;-1.456;2022-09-28T04:28:12;12.10;99.90
16871;DHT22;8552;48.120;-1.456;2022-09-28T04:30:56;12.10;99.90
16871;DHT22;8552;48.120;-1.456;2022-09-28T04:33:21;12.10;99.90
16871;DHT22;8552;48.120;-1.456;2022-09-28T04:35:47;12.10;99.90
16871;DHT22;8552;48.120;-1.456;2022-09-28T04:38:13;12.10;99.90
16871;DHT22;8552;48.120;-1.456;2022-09-28T04:40:38;12.00;99.90
16871;DHT22;8552;48.120;-1.456;2022-09-28T04:43:04;12.00;99.90
16871;DHT22;8552;48.120;-1.456;2022-09-28T04:45:30;12.00;99.90
16871;DHT22;8552;48.120;-1.456;2022-09-28T04:47:55;12.00;99.90
16871;DHT22;8552;48.120;-1.456;2022-09-28T04:50:21;12.00;99.90
16871;DHT22;8552;48.120;-1.456;2022-09-28T04:52:47;12.00;99.90
16871;DHT22;8552;48.120;-1.456;2022-09-28T04:55:13;12.00;99.90
16871;DHT22;8552;48.120;-1.456;2022-09-28T04:57:39;12.00;99.90
16871;DHT22;8552;48.120;-1.456;2022-09-28T05:00:05;12.00;99.90
16871;DHT22;8552;48.120;-1.456;2022-09-28T05:02:31;12.00;99.90
16871;DHT22;8552;48.120;-1.456;2022-09-28T05:04:58;12.00;99.90
16871;DHT22;8552;48.120;-1.456;2022-09-28T05:07:24;12.00;99.90
16871;DHT22;8552;48.120;-1.456;2022-09-28T05:09:50;12.00;99.90
16871;DHT22;8552;48.120;-1.456;2022-09-28T05:12:16;12.00;99.90
16871;DHT22;8552;48.120;-1.456;2022-09-28T05:14:42;11.90;99.90
16871;DHT22;8552;48.120;-1.456;2022-09-28T05:17:09;12.00;99.90
16871;DHT22;8552;48.120;-1.456;2022-09-28T05:19:34;12.00;99.90
16871;DHT22;8552;48.120;-1.456;2022-09-28T05:22:01;11.90;99.90
16871;DHT22;8552;48.120;-1.456;2022-09-28T05:24:29;11.90;99.90
16871;DHT22;8552;48.120;-1.456;2022-09-28T05:26:55;11.90;99.90
16871;DHT22;8552;48.120;-1.456;2022-09-28T05:29:21;11.90;99.90
16871;DHT22;8552;48.120;-1.456;2022-09-28T05:31:46;11.90;99.90
16871;DHT22;8552;48.120;-1.456;2022-09-28T05:34:12;11.90;99.90
16871;DHT22;8552;48.120;-1.456;2022-09-28T05:36:38;11.90;99.90
16871;DHT22;8552;48.120;-1.456;2022-09-28T05:39:05;12.00;99.90
16871;DHT22;8552;48.120;-1.456;2022-09-28T05:41:31;11.90;99.90
16871;DHT22;8552;48.120;-1.456;2022-09-28T05:43:56;12.00;99.90
16871;DHT22;8552;48.120;-1.456;2022-09-28T05:46:23;11.90;99.90
16871;DHT22;8552;48.120;-1.456;2022-09-28T05:48:50;12.00;99.90
16871;DHT22;8552;48.120;-1.456;2022-09-28T05:51:17;12.00;99.90
16871;DHT22;8552;48.120;-1.456;2022-09-28T05:53:43;11.90;99.90
16871;DHT22;8552;48.120;-1.456;2022-09-28T05:56:08;12.00;99.90
16871;DHT22;8552;48.120;-1.456;2022-09-28T05:58:34;12.00;99.90
16871;DHT22;8552;48.120;-1.456;2022-09-28T06:00:59;12.00;99.90
16871;DHT22;8552;48.120;-1.456;2022-09-28T06:03:25;12.00;99.90
16871;DHT22;8552;48.120;-1.456;2022-09-28T06:05:51;12.00;99.90
16871;DHT22;8552;48.120;-1.456;2022-09-28T06:08:17;12.00;99.90
16871;DHT22;8552;48.120;-1.456;2022-09-28T06:10:43;12.00;99.90
16871;DHT22;8552;48.120;-1.456;2022-09-28T06:13:09;12.00;99.90
16871;DHT22;8552;48.120;-1.456;2022-09-28T06:15:36;12.00;99.90
16871;DHT22;8552;48.120;-1.456;2022-09-28T06:18:07;12.00;99.90
16871;DHT22;8552;48.120;-1.456;2022-09-28T06:20:36;11.90;99.90
16871;DHT22;8552;48.120;-1.456;2022-09-28T06:23:02;11.90;99.90
16871;DHT22;8552;48.120;-1.456;2022-09-28T06:25:27;11.90;99.90
16871;DHT22;8552;48.120;-1.456;2022-09-28T06:27:58;11.90;99.90
16871;DHT22;8552;48.120;-1.456;2022-09-28T06:30:25;11.90;99.90
16871;DHT22;8552;48.120;-1.456;2022-09-28T06:32:55;11.90;99.90
16871;DHT22;8552;48.120;-1.456;2022-09-28T06:35:23;11.90;99.90
16871;DHT22;8552;48.120;-1.456;2022-09-28T06:37:50;11.90;99.90
16871;DHT22;8552;48.120;-1.456;2022-09-28T06:40:16;11.90;99.90
16871;DHT22;8552;48.120;-1.456;2022-09-28T06:42:42;11.90;99.90
16871;DHT22;8552;48.120;-1.456;2022-09-28T06:45:08;11.90;99.90
16871;DHT22;8552;48.120;-1.456;2022-09-28T06:47:35;12.00;99.90
16871;DHT22;8552;48.120;-1.456;2022-09-28T06:50:03;11.90;99.90
16871;DHT22;8552;48.120;-1.456;2022-09-28T06:52:30;11.90;99.90
16871;DHT22;8552;48.120;-1.456;2022-09-28T06:54:55;11.90;99.90
16871;DHT22;8552;48.120;-1.456;2022-09-28T06:57:21;11.90;99.90
16871;DHT22;8552;48.120;-1.456;2022-09-28T06:59:47;11.80;99.90
16871;DHT22;8552;48.120;-1.456;2022-09-28T07:02:12;11.80;99.90
16871;DHT22;8552;48.120;-1.456;2022-09-28T07:04:42;11.80;99.90
16871;DHT22;8552;48.120;-1.456;2022-09-28T07:07:12;11.80;99.90
16871;DHT22;8552;48.120;-1.456;2022-09-28T07:09:38;11.80;99.90
16871;DHT22;8552;48.120;-1.456;2022-09-28T07:12:04;11.80;99.90
16871;DHT22;8552;48.120;-1.456;2022-09-28T07:14:33;11.80;99.90
16871;DHT22;8552;48.120;-1.456;2022-09-28T07:16:59;11.90;99.90
16871;DHT22;8552;48.120;-1.456;2022-09-28T07:19:25;11.80;99.90
16871;DHT22;8552;48.120;-1.456;2022-09-28T07:21:51;11.80;99.90
16871;DHT22;8552;48.120;-1.456;2022-09-28T07:24:17;11.90;99.90
16871;DHT22;8552;48.120;-1.456;2022-09-28T07:26:43;11.90;99.90
16871;DHT22;8552;48.120;-1.456;2022-09-28T07:29:10;11.90;99.90
16871;DHT22;8552;48.120;-1.456;2022-09-28T07:31:38;11.90;99.90
16871;DHT22;8552;48.120;-1.456;2022-09-28T07:34:03;12.00;99.90
16871;DHT22;8552;48.120;-1.456;2022-09-28T07:36:29;12.00;99.90
16871;DHT22;8552;48.120;-1.456;2022-09-28T07:38:55;12.00;99.90
16871;DHT22;8552;48.120;-1.456;2022-09-28T07:41:21;12.10;99.90
16871;DHT22;8552;48.120;-1.456;2022-09-28T07:43:57;12.20;99.90
16871;DHT22;8552;48.120;-1.456;2022-09-28T07:46:31;12.20;99.90
16871;DHT22;8552;48.120;-1.456;2022-09-28T07:48:57;12.20;99.90
16871;DHT22;8552;48.120;-1.456;2022-09-28T07:51:22;12.30;99.90
16871;DHT22;8552;48.120;-1.456;2022-09-28T07:53:48;12.30;99.90
16871;DHT22;8552;48.120;-1.456;2022-09-28T07:56:14;12.30;99.90
16871;DHT22;8552;48.120;-1.456;2022-09-28T07:58:41;12.40;99.90
16871;DHT22;8552;48.120;-1.456;2022-09-28T08:01:09;12.40;99.90
16871;DHT22;8552;48.120;-1.456;2022-09-28T08:03:36;12.40;99.90
16871;DHT22;8552;48.120;-1.456;2022-09-28T08:06:05;12.40;99.90
16871;DHT22;8552;48.120;-1.456;2022-09-28T08:08:35;12.50;99.90
16871;DHT22;8552;48.120;-1.456;2022-09-28T08:11:01;12.50;99.90
16871;DHT22;8552;48.120;-1.456;2022-09-28T08:13:27;12.60;99.90
16871;DHT22;8552;48.120;-1.456;2022-09-28T08:15:58;12.50;99.90
16871;DHT22;8552;48.120;-1.456;2022-09-28T08:18:24;12.50;99.90
16871;DHT22;8552;48.120;-1.456;2022-09-28T08:20:53;12.50;99.90
16871;DHT22;8552;48.120;-1.456;2022-09-28T08:23:37;12.50;99.90
16871;DHT22;8552;48.120;-1.456;2022-09-28T08:26:04;12.50;99.90
16871;DHT22;8552;48.120;-1.456;2022-09-28T08:28:30;12.50;99.90
16871;DHT22;8552;48.120;-1.456;2022-09-28T08:30:58;12.50;99.90
16871;DHT22;8552;48.120;-1.456;2022-09-28T08:33:25;12.50;99.90
16871;DHT22;8552;48.120;-1.456;2022-09-28T08:35:58;12.40;99.90
16871;DHT22;8552;48.120;-1.456;2022-09-28T08:38:25;12.50;99.90
16871;DHT22;8552;48.120;-1.456;2022-09-28T08:46:09;12.40;99.90
16871;DHT22;8552;48.120;-1.456;2022-09-28T08:48:44;12.40;99.90
16871;DHT22;8552;48.120;-1.456;2022-09-28T08:54:03;12.40;99.90
16871;DHT22;8552;48.120;-1.456;2022-09-28T08:56:46;12.30;99.90
16871;DHT22;8552;48.120;-1.456;2022-09-28T08:59:44;12.30;99.90
16871;DHT22;8552;48.120;-1.456;2022-09-28T09:02:21;12.30;99.90
16871;DHT22;8552;48.120;-1.456;2022-09-28T09:04:49;12.40;99.90
16871;DHT22;8552;48.120;-1.456;2022-09-28T09:09:47;12.30;99.90
16871;DHT22;8552;48.120;-1.456;2022-09-28T09:20:54;12.50;99.90
16871;DHT22;8552;48.120;-1.456;2022-09-28T09:23:35;12.50;99.90
16871;DHT22;8552;48.120;-1.456;2022-09-28T09:26:15;12.50;99.90
16871;DHT22;8552;48.120;-1.456;2022-09-28T09:31:23;12.60;99.90
16871;DHT22;8552;48.120;-1.456;2022-09-28T09:39:37;12.90;99.90
16871;DHT22;8552;48.120;-1.456;2022-09-28T09:42:22;12.90;99.90
16871;DHT22;8552;48.120;-1.456;2022-09-28T09:47:37;13.00;99.90
16871;DHT22;8552;48.120;-1.456;2022-09-28T09:50:07;13.00;99.90
16871;DHT22;8552;48.120;-1.456;2022-09-28T09:52:57;13.10;99.90
16871;DHT22;8552;48.120;-1.456;2022-09-28T09:55:37;13.10;99.90
16871;DHT22;8552;48.120;-1.456;2022-09-28T10:00:37;13.30;99.90
16871;DHT22;8552;48.120;-1.456;2022-09-28T10:03:03;13.30;99.90
16871;DHT22;8552;48.120;-1.456;2022-09-28T10:05:30;13.30;99.90
16871;DHT22;8552;48.120;-1.456;2022-09-28T10:08:14;13.30;99.90
16871;DHT22;8552;48.120;-1.456;2022-09-28T10:10:50;13.30;99.90
16871;DHT22;8552;48.120;-1.456;2022-09-28T10:13:17;13.40;99.90
16871;DHT22;8552;48.120;-1.456;2022-09-28T10:15:43;13.40;99.90
16871;DHT22;8552;48.120;-1.456;2022-09-28T10:18:14;13.50;99.90
16871;DHT22;8552;48.120;-1.456;2022-09-28T10:20:44;13.60;99.90
16871;DHT22;8552;48.120;-1.456;2022-09-28T10:23:25;13.60;99.90
16871;DHT22;8552;48.120;-1.456;2022-09-28T10:25:58;13.50;99.90
16871;DHT22;8552;48.120;-1.456;2022-09-28T10:28:39;13.50;99.90
16871;DHT22;8552;48.120;-1.456;2022-09-28T10:33:58;13.60;99.90
16871;DHT22;8552;48.120;-1.456;2022-09-28T10:36:24;13.70;99.90
16871;DHT22;8552;48.120;-1.456;2022-09-28T10:38:50;13.60;99.90
16871;DHT22;8552;48.120;-1.456;2022-09-28T10:41:18;13.60;99.90
16871;DHT22;8552;48.120;-1.456;2022-09-28T10:43:51;13.70;99.90
16871;DHT22;8552;48.120;-1.456;2022-09-28T10:46:32;13.70;99.90
16871;DHT22;8552;48.120;-1.456;2022-09-28T10:49:14;13.80;99.90
16871;DHT22;8552;48.120;-1.456;2022-09-28T10:51:44;13.80;99.90
16871;DHT22;8552;48.120;-1.456;2022-09-28T10:54:19;13.60;99.90
16871;DHT22;8552;48.120;-1.456;2022-09-28T10:56:46;13.60;99.90
16871;DHT22;8552;48.120;-1.456;2022-09-28T10:59:34;13.60;99.90
16871;DHT22;8552;48.120;-1.456;2022-09-28T11:04:33;13.50;99.90
16871;DHT22;8552;48.120;-1.456;2022-09-28T11:07:03;13.60;99.90
16871;DHT22;8552;48.120;-1.456;2022-09-28T11:09:36;13.60;99.90
16871;DHT22;8552;48.120;-1.456;2022-09-28T11:12:05;13.50;99.90
16871;DHT22;8552;48.120;-1.456;2022-09-28T11:14:36;13.60;99.90
16871;DHT22;8552;48.120;-1.456;2022-09-28T11:17:28;13.70;99.90
16871;DHT22;8552;48.120;-1.456;2022-09-28T11:19:57;13.80;99.90
16871;DHT22;8552;48.120;-1.456;2022-09-28T11:28:03;13.60;99.90
16871;DHT22;8552;48.120;-1.456;2022-09-28T11:30:35;13.70;99.90
16871;DHT22;8552;48.120;-1.456;2022-09-28T11:33:09;13.80;99.90
16871;DHT22;8552;48.120;-1.456;2022-09-28T11:49:56;14.00;99.90
16871;DHT22;8552;48.120;-1.456;2022-09-28T11:52:31;14.00;99.90
16871;DHT22;8552;48.120;-1.456;2022-09-28T11:57:55;14.00;99.90
16871;DHT22;8552;48.120;-1.456;2022-09-28T12:00:26;14.00;99.90
16871;DHT22;8552;48.120;-1.456;2022-09-28T12:03:15;14.00;99.90
16871;DHT22;8552;48.120;-1.456;2022-09-28T12:05:58;13.90;99.90
16871;DHT22;8552;48.120;-1.456;2022-09-28T12:08:34;13.90;99.90
16871;DHT22;8552;48.120;-1.456;2022-09-28T12:11:18;14.10;99.90
16871;DHT22;8552;48.120;-1.456;2022-09-28T12:13:47;14.20;99.90
16871;DHT22;8552;48.120;-1.456;2022-09-28T12:16:27;14.30;99.90
16871;DHT22;8552;48.120;-1.456;2022-09-28T12:19:01;14.40;99.90
16871;DHT22;8552;48.120;-1.456;2022-09-28T12:21:52;14.40;99.90
16871;DHT22;8552;48.120;-1.456;2022-09-28T12:29:52;14.40;99.90
16871;DHT22;8552;48.120;-1.456;2022-09-28T12:32:43;14.50;99.90
16871;DHT22;8552;48.120;-1.456;2022-09-28T12:38:17;14.30;99.90
16871;DHT22;8552;48.120;-1.456;2022-09-28T12:51:52;14.20;99.90
16871;DHT22;8552;48.120;-1.456;2022-09-28T12:54:48;14.10;99.90
16871;DHT22;8552;48.120;-1.456;2022-09-28T12:57:38;14.20;99.90
16871;DHT22;8552;48.120;-1.456;2022-09-28T13:09:13;14.50;99.90
16871;DHT22;8552;48.120;-1.456;2022-09-28T13:12:24;14.60;99.90
16871;DHT22;8552;48.120;-1.456;2022-09-28T13:20:41;14.70;99.90
16871;DHT22;8552;48.120;-1.456;2022-09-28T13:25:35;14.80;99.90
16871;DHT22;8552;48.120;-1.456;2022-09-28T13:28:05;15.10;99.90
16871;DHT22;8552;48.120;-1.456;2022-09-28T13:30:32;15.20;99.90
16871;DHT22;8552;48.120;-1.456;2022-09-28T13:33:02;15.20;99.90
16871;DHT22;8552;48.120;-1.456;2022-09-28T13:35:30;15.30;99.90
16871;DHT22;8552;48.120;-1.456;2022-09-28T13:43:45;15.40;99.90
16871;DHT22;8552;48.120;-1.456;2022-09-28T13:46:42;15.50;99.90
16871;DHT22;8552;48.120;-1.456;2022-09-28T13:55:21;15.60;99.90
16871;DHT22;8552;48.120;-1.456;2022-09-28T13:58:15;15.70;99.90
16871;DHT22;8552;48.120;-1.456;2022-09-28T14:01:06;15.70;99.90
16871;DHT22;8552;48.120;-1.456;2022-09-28T14:06:30;16.00;99.90
16871;DHT22;8552;48.120;-1.456;2022-09-28T14:11:58;16.20;99.90
16871;DHT22;8552;48.120;-1.456;2022-09-28T14:14:27;16.40;99.90
16871;DHT22;8552;48.120;-1.456;2022-09-28T14:20:06;16.50;99.90
16871;DHT22;8552;48.120;-1.456;2022-09-28T14:22:48;16.50;99.90
16871;DHT22;8552;48.120;-1.456;2022-09-28T14:25:24;16.70;99.90
16871;DHT22;8552;48.120;-1.456;2022-09-28T14:33:28;16.70;99.90
16871;DHT22;8552;48.120;-1.456;2022-09-28T14:35:59;16.70;99.90
16871;DHT22;8552;48.120;-1.456;2022-09-28T14:38:43;16.40;99.90
16871;DHT22;8552;48.120;-1.456;2022-09-28T14:41:37;16.30;99.90
16871;DHT22;8552;48.120;-1.456;2022-09-28T14:44:11;16.10;99.90
16871;DHT22;8552;48.120;-1.456;2022-09-28T14:46:39;15.90;99.90
16871;DHT22;8552;48.120;-1.456;2022-09-28T14:54:18;15.80;99.90
16871;DHT22;8552;48.120;-1.456;2022-09-28T15:01:54;15.80;99.90
16871;DHT22;8552;48.120;-1.456;2022-09-28T15:04:27;15.70;99.90
16871;DHT22;8552;48.120;-1.456;2022-09-28T15:06:53;15.80;99.90
16871;DHT22;8552;48.120;-1.456;2022-09-28T15:09:27;15.90;99.90
16871;DHT22;8552;48.120;-1.456;2022-09-28T15:11:59;15.90;99.90
16871;DHT22;8552;48.120;-1.456;2022-09-28T15:14:26;16.00;99.90
16871;DHT22;8552;48.120;-1.456;2022-09-28T15:16:53;15.90;99.90
16871;DHT22;8552;48.120;-1.456;2022-09-28T15:19:31;15.70;99.90
16871;DHT22;8552;48.120;-1.456;2022-09-28T15:22:02;15.80;99.90
16871;DHT22;8552;48.120;-1.456;2022-09-28T15:24:31;16.00;99.90
16871;DHT22;8552;48.120;-1.456;2022-09-28T15:27:02;16.00;99.90
16871;DHT22;8552;48.120;-1.456;2022-09-28T15:29:29;15.90;99.90
16871;DHT22;8552;48.120;-1.456;2022-09-28T15:31:58;16.10;99.90
16871;DHT22;8552;48.120;-1.456;2022-09-28T15:34:28;16.10;99.90
16871;DHT22;8552;48.120;-1.456;2022-09-28T15:37:15;16.00;99.90
16871;DHT22;8552;48.120;-1.456;2022-09-28T15:39:41;15.80;99.90
16871;DHT22;8552;48.120;-1.456;2022-09-28T15:42:08;15.60;99.90
16871;DHT22;8552;48.120;-1.456;2022-09-28T15:44:36;15.50;99.90
16871;DHT22;8552;48.120;-1.456;2022-09-28T15:47:14;15.40;99.90
16871;DHT22;8552;48.120;-1.456;2022-09-28T15:49:52;15.30;99.90
16871;DHT22;8552;48.120;-1.456;2022-09-28T15:52:45;15.10;99.90
16871;DHT22;8552;48.120;-1.456;2022-09-28T15:55:31;14.70;99.90
16871;DHT22;8552;48.120;-1.456;2022-09-28T15:58:19;14.40;99.90
16871;DHT22;8552;48.120;-1.456;2022-09-28T16:00:47;14.10;99.90
16871;DHT22;8552;48.120;-1.456;2022-09-28T16:05:48;13.90;99.90
16871;DHT22;8552;48.120;-1.456;2022-09-28T16:13:20;13.80;99.90
16871;DHT22;8552;48.120;-1.456;2022-09-28T16:15:56;13.70;99.90
16871;DHT22;8552;48.120;-1.456;2022-09-28T16:18:23;13.50;99.90
16871;DHT22;8552;48.120;-1.456;2022-09-28T16:20:55;13.20;99.90
16871;DHT22;8552;48.120;-1.456;2022-09-28T16:25:56;13.10;99.90
16871;DHT22;8552;48.120;-1.456;2022-09-28T16:28:46;13.00;99.90
16871;DHT22;8552;48.120;-1.456;2022-09-28T16:36:15;13.00;99.90
16871;DHT22;8552;48.120;-1.456;2022-09-28T16:38:44;13.00;99.90
16871;DHT22;8552;48.120;-1.456;2022-09-28T16:41:11;13.00;99.90
16871;DHT22;8552;48.120;-1.456;2022-09-28T16:43:37;13.00;99.90
16871;DHT22;8552;48.120;-1.456;2022-09-28T16:46:09;13.00;99.90
16871;DHT22;8552;48.120;-1.456;2022-09-28T16:48:42;13.00;99.90
16871;DHT22;8552;48.120;-1.456;2022-09-28T16:51:22;13.00;99.90
16871;DHT22;8552;48.120;-1.456;2022-09-28T16:53:48;13.00;99.90
16871;DHT22;8552;48.120;-1.456;2022-09-28T16:56:33;12.90;99.90
16871;DHT22;8552;48.120;-1.456;2022-09-28T16:59:00;12.80;99.90
16871;DHT22;8552;48.120;-1.456;2022-09-28T17:01:29;12.90;99.90
16871;DHT22;8552;48.120;-1.456;2022-09-28T17:03:56;12.90;99.90
16871;DHT22;8552;48.120;-1.456;2022-09-28T17:06:23;12.90;99.90
16871;DHT22;8552;48.120;-1.456;2022-09-28T17:08:50;12.90;99.90
16871;DHT22;8552;48.120;-1.456;2022-09-28T17:11:18;12.80;99.90
16871;DHT22;8552;48.120;-1.456;2022-09-28T17:13:45;12.80;99.90
16871;DHT22;8552;48.120;-1.456;2022-09-28T17:16:19;12.70;99.90
16871;DHT22;8552;48.120;-1.456;2022-09-28T17:18:46;12.60;99.90
16871;DHT22;8552;48.120;-1.456;2022-09-28T17:21:18;12.50;99.90
16871;DHT22;8552;48.120;-1.456;2022-09-28T17:23:44;12.40;99.90
16871;DHT22;8552;48.120;-1.456;2022-09-28T17:26:40;12.30;99.90
16871;DHT22;8552;48.120;-1.456;2022-09-28T17:29:13;12.20;99.90
16871;DHT22;8552;48.120;-1.456;2022-09-28T17:31:43;12.20;99.90
16871;DHT22;8552;48.120;-1.456;2022-09-28T17:34:11;12.20;99.90
16871;DHT22;8552;48.120;-1.456;2022-09-28T17:36:39;12.20;99.90
16871;DHT22;8552;48.120;-1.456;2022-09-28T17:39:05;12.10;99.90
16871;DHT22;8552;48.120;-1.456;2022-09-28T17:41:31;12.10;99.90
16871;DHT22;8552;48.120;-1.456;2022-09-28T17:43:58;12.10;99.90
16871;DHT22;8552;48.120;-1.456;2022-09-28T17:46:33;12.00;99.90
16871;DHT22;8552;48.120;-1.456;2022-09-28T17:49:01;12.00;99.90
16871;DHT22;8552;48.120;-1.456;2022-09-28T17:51:30;11.90;99.90
16871;DHT22;8552;48.120;-1.456;2022-09-28T17:53:57;11.90;99.90
16871;DHT22;8552;48.120;-1.456;2022-09-28T17:56:26;11.80;99.90
16871;DHT22;8552;48.120;-1.456;2022-09-28T17:58:52;11.70;99.90
16871;DHT22;8552;48.120;-1.456;2022-09-28T18:01:18;11.70;99.90
16871;DHT22;8552;48.120;-1.456;2022-09-28T18:03:44;11.70;99.90
16871;DHT22;8552;48.120;-1.456;2022-09-28T18:06:16;11.60;99.90
16871;DHT22;8552;48.120;-1.456;2022-09-28T18:08:44;11.60;99.90
16871;DHT22;8552;48.120;-1.456;2022-09-28T18:11:11;11.50;99.90
16871;DHT22;8552;48.120;-1.456;2022-09-28T18:13:37;11.50;99.90
16871;DHT22;8552;48.120;-1.456;2022-09-28T18:16:03;11.50;99.90
16871;DHT22;8552;48.120;-1.456;2022-09-28T18:18:29;11.50;99.90
16871;DHT22;8552;48.120;-1.456;2022-09-28T18:21:00;11.40;99.90
16871;DHT22;8552;48.120;-1.456;2022-09-28T18:23:27;11.40;99.90
16871;DHT22;8552;48.120;-1.456;2022-09-28T18:25:54;11.40;99.90
16871;DHT22;8552;48.120;-1.456;2022-09-28T18:28:20;11.30;99.90
16871;DHT22;8552;48.120;-1.456;2022-09-28T18:30:47;11.30;99.90
16871;DHT22;8552;48.120;-1.456;2022-09-28T18:33:13;11.30;99.90
16871;DHT22;8552;48.120;-1.456;2022-09-28T18:35:40;11.30;99.90
16871;DHT22;8552;48.120;-1.456;2022-09-28T18:38:06;11.20;99.90
16871;DHT22;8552;48.120;-1.456;2022-09-28T18:40:35;11.20;99.90
16871;DHT22;8552;48.120;-1.456;2022-09-28T18:43:02;11.10;99.90
16871;DHT22;8552;48.120;-1.456;2022-09-28T18:45:28;11.10;99.90
16871;DHT22;8552;48.120;-1.456;2022-09-28T18:47:53;11.10;99.90
16871;DHT22;8552;48.120;-1.456;2022-09-28T18:50:19;11.10;99.90
16871;DHT22;8552;48.120;-1.456;2022-09-28T18:52:45;11.00;99.90
16871;DHT22;8552;48.120;-1.456;2022-09-28T18:55:12;11.00;99.90
16871;DHT22;8552;48.120;-1.456;2022-09-28T18:57:38;11.00;99.90
16871;DHT22;8552;48.120;-1.456;2022-09-28T19:00:08;10.90;99.90
16871;DHT22;8552;48.120;-1.456;2022-09-28T19:02:34;10.90;99.90